Time;durP1;ratioP1;P1;durP2;ratioP2;P2;SDS_P1;SDS_P2;PMS_P1;PMS_P2;Temp;Humidity;BMP_temperature;BMP_pressure;BME280_temperature;BME280_humidity;BME280_pressure;Samples;Min_cycle;Max_cycle;Signal;HPM_P1;HPM_P2
2023/12/03 00:00:14;;;;;;;7.82;4.22;;;-0.60;99.90;;;;;;5019221;28;20049;-65
2023/12/03 00:02:42;;;;;;;12.68;6.15;;;-0.50;99.90;;;;;;5007480;28;20045;-66
2023/12/03 00:05:09;;;;;;;9.38;4.63;;;-0.50;99.90;;;;;;5008400;28;20056;-66
2023/12/03 00:07:36;;;;;;;8.93;4.75;;;-0.50;99.90;;;;;;5007392;28;20041;-65
2023/12/03 00:10:03;;;;;;;6.72;3.67;;;-0.40;99.90;;;;;;5010998;28;20056;-65
2023/12/03 00:12:30;;;;;;;10.52;4.68;;;-0.30;99.90;;;;;;5017494;28;20042;-66
2023/12/03 00:14:57;;;;;;;10.75;5.47;;;-0.20;99.90;;;;;;5007273;28;20104;-67
2023/12/03 00:17:25;;;;;;;13.88;4.90;;;-0.10;99.90;;;;;;5027700;28;20046;-66
2023/12/03 00:19:52;;;;;;;12.00;4.50;;;0.00;99.90;;;;;;5022764;28;20515;-66
2023/12/03 00:22:19;;;;;;;10.13;5.07;;;0.00;99.90;;;;;;5006415;28;20037;-67
2023/12/03 00:24:46;;;;;;;12.25;5.95;;;0.10;99.90;;;;;;5010917;28;20049;-66
2023/12/03 00:27:14;;;;;;;10.35;5.50;;;0.30;99.90;;;;;;5007640;28;20123;-67
2023/12/03 00:29:40;;;;;;;10.60;5.03;;;0.20;99.90;;;;;;5029239;28;20041;-66
2023/12/03 00:32:07;;;;;;;13.13;6.10;;;0.20;99.90;;;;;;5025793;28;20042;-66
2023/12/03 00:34:34;;;;;;;9.57;4.88;;;0.30;99.90;;;;;;5027821;28;20099;-66
2023/12/03 00:37:01;;;;;;;11.43;5.00;;;0.40;99.90;;;;;;5011651;28;20125;-66
2023/12/03 00:39:28;;;;;;;12.07;5.50;;;0.40;99.90;;;;;;5029113;28;20111;-66
2023/12/03 00:41:55;;;;;;;11.82;5.97;;;0.60;99.90;;;;;;5026448;28;20041;-67
2023/12/03 00:44:21;;;;;;;11.00;4.85;;;0.50;99.90;;;;;;5009818;28;20424;-66
2023/12/03 00:46:49;;;;;;;10.15;6.03;;;0.50;99.90;;;;;;5028750;28;20136;-66
2023/12/03 00:49:16;;;;;;;10.57;4.93;;;0.70;99.90;;;;;;5028440;28;20049;-66
2023/12/03 00:51:43;;;;;;;14.60;6.45;;;0.70;99.90;;;;;;5024333;28;20504;-66
2023/12/03 00:54:09;;;;;;;7.85;4.13;;;0.70;99.90;;;;;;5028432;28;20085;-67
2023/12/03 00:56:36;;;;;;;9.23;4.88;;;0.70;99.90;;;;;;5029039;28;20286;-66
2023/12/03 00:59:03;;;;;;;12.73;6.63;;;0.70;99.90;;;;;;5026155;28;20072;-66
2023/12/03 01:01:30;;;;;;;14.68;6.03;;;0.70;99.90;;;;;;5029387;28;20046;-66
2023/12/03 01:03:57;;;;;;;14.13;5.88;;;0.70;99.90;;;;;;5028034;28;20047;-65
2023/12/03 01:06:24;;;;;;;14.88;6.13;;;0.80;99.90;;;;;;5029130;28;20049;-66
2023/12/03 01:08:51;;;;;;;13.40;6.00;;;0.70;99.90;;;;;;5028052;28;20041;-66
2023/12/03 01:11:18;;;;;;;12.70;6.50;;;0.80;99.90;;;;;;5027624;28;20049;-65
2023/12/03 01:14:02;;;;;;;13.13;5.95;;;0.80;99.90;;;;;;5028211;28;20100;-66
2023/12/03 01:16:29;;;;;;;11.10;5.68;;;1.00;99.90;;;;;;5027683;28;20053;-66
2023/12/03 01:18:56;;;;;;;12.52;5.50;;;0.80;99.90;;;;;;5028610;28;20046;-65
2023/12/03 01:21:23;;;;;;;11.77;6.78;;;0.80;99.90;;;;;;5028840;28;20053;-66
2023/12/03 01:23:50;;;;;;;16.17;5.70;;;0.90;99.90;;;;;;5028125;28;20132;-65
2023/12/03 01:26:17;;;;;;;12.38;6.03;;;0.90;99.90;;;;;;5027795;28;20500;-66
2023/12/03 01:28:44;;;;;;;14.40;6.40;;;0.90;99.90;;;;;;5027998;28;20045;-66
2023/12/03 01:31:11;;;;;;;11.02;5.65;;;0.90;99.90;;;;;;5027941;28;20061;-65
2023/12/03 01:33:38;;;;;;;11.05;5.85;;;0.90;99.90;;;;;;5010244;28;20038;-65
2023/12/03 01:36:05;;;;;;;12.98;6.32;;;0.90;99.90;;;;;;5027887;28;20107;-66
2023/12/03 01:38:32;;;;;;;13.88;6.22;;;0.90;99.90;;;;;;5028101;28;20038;-66
2023/12/03 01:40:59;;;;;;;19.83;6.72;;;0.90;99.90;;;;;;5026916;28;20581;-66
2023/12/03 01:43:26;;;;;;;16.65;6.18;;;1.00;99.90;;;;;;5027069;28;20054;-66
2023/12/03 01:45:52;;;;;;;12.57;6.05;;;1.00;99.90;;;;;;5021369;28;20073;-66
2023/12/03 01:48:19;;;;;;;12.50;6.30;;;1.00;99.90;;;;;;5028206;28;20493;-66
2023/12/03 01:50:47;;;;;;;15.45;5.97;;;1.00;99.90;;;;;;5010260;28;20053;-66
2023/12/03 01:53:15;;;;;;;13.93;6.43;;;1.00;99.90;;;;;;5010159;28;20393;-66
2023/12/03 01:55:43;;;;;;;11.80;6.38;;;1.00;99.90;;;;;;5008154;28;20053;-66
2023/12/03 01:58:10;;;;;;;12.57;6.78;;;1.00;99.90;;;;;;5010477;28;20057;-66
2023/12/03 02:00:36;;;;;;;11.70;6.10;;;1.10;99.90;;;;;;5028131;28;20405;-65
2023/12/03 02:03:05;;;;;;;14.93;7.28;;;1.10;99.90;;;;;;5026412;28;20041;-66
2023/12/03 02:05:32;;;;;;;11.57;6.07;;;1.10;99.90;;;;;;5027515;28;20054;-66
2023/12/03 02:08:00;;;;;;;12.57;5.68;;;1.10;99.90;;;;;;4678517;28;10000619;-65
2023/12/03 02:10:27;;;;;;;18.08;6.45;;;1.10;99.90;;;;;;5025377;28;20087;-66
2023/12/03 02:12:54;;;;;;;14.48;6.82;;;1.10;99.90;;;;;;5010289;28;20039;-65
2023/12/03 02:15:21;;;;;;;8.25;5.72;;;1.10;99.90;;;;;;5009704;28;20045;-66
2023/12/03 02:17:48;;;;;;;11.32;6.78;;;1.00;99.90;;;;;;5010642;28;20041;-65
2023/12/03 02:20:14;;;;;;;10.75;5.75;;;1.00;99.90;;;;;;5014461;28;20049;-66
2023/12/03 02:23:02;;;;;;;12.65;6.20;;;1.00;99.90;;;;;;5031012;28;20175;-66
2023/12/03 02:25:28;;;;;;;9.27;5.15;;;1.10;99.90;;;;;;5026891;28;20054;-65
2023/12/03 02:27:55;;;;;;;12.20;5.55;;;1.10;99.90;;;;;;5010217;28;20096;-67
2023/12/03 02:30:22;;;;;;;10.18;5.68;;;1.10;99.90;;;;;;5027574;28;20444;-65
2023/12/03 02:32:49;;;;;;;11.52;6.20;;;1.10;99.90;;;;;;5024119;28;20076;-65
2023/12/03 02:35:16;;;;;;;14.60;6.22;;;1.20;99.90;;;;;;5026526;28;20075;-65
2023/12/03 02:37:43;;;;;;;9.15;5.63;;;1.20;99.90;;;;;;5027079;28;20099;-65
2023/12/03 02:40:10;;;;;;;11.55;5.97;;;1.20;99.90;;;;;;5027805;28;20467;-64
2023/12/03 02:42:36;;;;;;;10.85;5.03;;;1.20;99.90;;;;;;5027501;28;20048;-65
2023/12/03 02:45:05;;;;;;;11.48;5.50;;;1.30;99.90;;;;;;5026758;28;20045;-67
2023/12/03 02:47:31;;;;;;;11.63;5.20;;;1.30;99.90;;;;;;5027205;28;20096;-66
2023/12/03 02:49:58;;;;;;;13.65;5.70;;;1.30;99.90;;;;;;5027823;28;20045;-67
2023/12/03 02:52:25;;;;;;;11.27;4.93;;;1.30;99.90;;;;;;5026043;28;20476;-66
2023/12/03 02:54:53;;;;;;;12.93;6.32;;;1.30;99.90;;;;;;5019678;28;20566;-66
2023/12/03 02:57:19;;;;;;;10.75;5.72;;;1.40;99.90;;;;;;5031107;28;20060;-67
2023/12/03 02:59:46;;;;;;;10.63;5.03;;;1.30;99.90;;;;;;5031763;28;20059;-66
2023/12/03 03:02:13;;;;;;;10.75;5.53;;;1.30;99.90;;;;;;5029695;28;20053;-67
2023/12/03 03:04:40;;;;;;;7.35;4.15;;;1.40;99.90;;;;;;5030226;28;20114;-66
2023/12/03 03:07:07;;;;;;;12.48;4.07;;;1.40;99.90;;;;;;5031266;28;20049;-66
2023/12/03 03:09:34;;;;;;;8.20;3.38;;;1.60;99.90;;;;;;5031263;28;20037;-66
2023/12/03 03:12:01;;;;;;;5.90;3.28;;;1.80;99.90;;;;;;5013008;28;20052;-65
2023/12/03 03:14:27;;;;;;;5.75;3.00;;;1.90;99.90;;;;;;5030677;28;20448;-66
2023/12/03 03:16:54;;;;;;;8.45;3.28;;;2.00;99.90;;;;;;5030560;28;20053;-67
2023/12/03 03:19:21;;;;;;;8.00;2.88;;;2.20;99.90;;;;;;5010019;28;20100;-66
2023/12/03 03:21:48;;;;;;;9.05;3.17;;;2.30;99.90;;;;;;5025219;28;20053;-66
2023/12/03 03:24:15;;;;;;;9.23;2.90;;;2.40;99.90;;;;;;5030224;28;20053;-67
2023/12/03 03:26:42;;;;;;;5.35;2.53;;;2.50;99.90;;;;;;4996976;28;20057;-66
2023/12/03 03:29:09;;;;;;;9.25;2.28;;;2.50;99.90;;;;;;5031053;28;20052;-66
2023/12/03 03:31:36;;;;;;;6.90;2.78;;;2.60;99.90;;;;;;5031328;28;20076;-66
2023/12/03 03:34:03;;;;;;;4.43;2.75;;;2.70;99.90;;;;;;5030599;28;20049;-67
2023/12/03 03:36:30;;;;;;;11.98;3.10;;;2.70;99.90;;;;;;4997062;28;20053;-66
2023/12/03 03:38:57;;;;;;;8.02;3.25;;;2.80;99.90;;;;;;5029068;28;20394;-65
2023/12/03 03:41:23;;;;;;;5.28;2.40;;;2.80;99.90;;;;;;5029593;28;20049;-66
2023/12/03 03:43:50;;;;;;;5.05;2.35;;;2.80;99.90;;;;;;5029033;28;20067;-66
2023/12/03 03:46:17;;;;;;;10.07;2.67;;;2.90;99.90;;;;;;5030161;28;20053;-65
2023/12/03 03:48:44;;;;;;;9.13;3.33;;;2.90;99.90;;;;;;5029418;28;20520;-65
2023/12/03 03:51:11;;;;;;;4.75;2.13;;;2.90;99.90;;;;;;5012651;28;20099;-65
2023/12/03 03:53:38;;;;;;;6.78;2.35;;;2.90;99.90;;;;;;5029925;28;20468;-65
2023/12/03 03:56:08;;;;;;;9.15;2.47;;;2.90;99.90;;;;;;5029693;28;20053;-65
2023/12/03 03:58:38;;;;;;;5.65;2.30;;;2.90;99.90;;;;;;5012399;28;20045;-65
2023/12/03 04:01:07;;;;;;;5.22;2.58;;;3.00;99.90;;;;;;5026272;28;20081;-65
2023/12/03 04:03:34;;;;;;;9.30;2.58;;;3.00;99.90;;;;;;5022405;28;20052;-65
2023/12/03 04:06:02;;;;;;;5.40;2.10;;;3.00;99.90;;;;;;5006876;28;20132;-65
2023/12/03 04:08:29;;;;;;;5.35;2.20;;;3.10;99.90;;;;;;5009805;28;20049;-65
2023/12/03 04:10:56;;;;;;;6.45;3.47;;;3.10;99.90;;;;;;5026011;28;20771;-65
2023/12/03 04:13:24;;;;;;;3.88;1.75;;;3.20;99.90;;;;;;5022750;28;20049;-65
2023/12/03 04:15:51;;;;;;;8.32;3.30;;;3.20;99.90;;;;;;4994590;28;20045;-65
2023/12/03 04:18:18;;;;;;;6.70;2.08;;;3.20;99.90;;;;;;5023577;28;20190;-65
2023/12/03 04:20:45;;;;;;;5.57;2.60;;;3.20;99.90;;;;;;5026725;28;20045;-65
2023/12/03 04:23:12;;;;;;;3.25;1.95;;;3.20;99.90;;;;;;5029452;28;20057;-65
2023/12/03 04:25:39;;;;;;;6.55;1.92;;;3.20;99.90;;;;;;5011292;28;20523;-66
2023/12/03 04:28:06;;;;;;;3.70;1.95;;;3.20;99.90;;;;;;5029457;28;20045;-66
2023/12/03 04:30:33;;;;;;;7.82;2.00;;;3.30;99.90;;;;;;5022542;28;20053;-64
2023/12/03 04:33:00;;;;;;;5.65;2.22;;;3.30;99.90;;;;;;5011638;28;20385;-65
2023/12/03 04:35:27;;;;;;;4.72;2.30;;;3.40;99.90;;;;;;5028236;28;20065;-65
2023/12/03 04:37:53;;;;;;;8.30;2.53;;;3.40;99.90;;;;;;5029415;28;20103;-65
2023/12/03 04:40:20;;;;;;;5.20;2.33;;;3.50;99.90;;;;;;5028681;28;20060;-65
2023/12/03 04:42:47;;;;;;;6.30;1.90;;;3.50;99.90;;;;;;5028796;28;20184;-65
2023/12/03 04:45:14;;;;;;;7.30;2.42;;;3.50;99.90;;;;;;5029110;28;20079;-65
2023/12/03 04:47:41;;;;;;;5.50;2.05;;;3.50;99.90;;;;;;5028997;28;20485;-65
2023/12/03 04:50:08;;;;;;;4.72;2.50;;;3.50;99.90;;;;;;5028751;28;20103;-66
2023/12/03 04:52:35;;;;;;;9.85;2.08;;;3.50;99.90;;;;;;5007782;28;20045;-65
2023/12/03 04:55:01;;;;;;;7.55;2.35;;;3.50;99.90;;;;;;5010921;28;20041;-65
2023/12/03 04:57:28;;;;;;;4.43;2.58;;;3.50;99.90;;;;;;5011629;28;20574;-65
2023/12/03 04:59:55;;;;;;;8.85;3.33;;;3.50;99.90;;;;;;5027284;28;20042;-65
2023/12/03 05:02:22;;;;;;;4.50;2.00;;;3.50;99.90;;;;;;5026650;28;20553;-65
2023/12/03 05:04:49;;;;;;;5.45;2.50;;;3.50;99.90;;;;;;5030848;28;20052;-65
2023/12/03 05:07:15;;;;;;;6.78;2.08;;;3.60;99.90;;;;;;5029589;28;20443;-65
2023/12/03 05:09:42;;;;;;;4.65;2.38;;;3.50;99.90;;;;;;5027043;28;20045;-65
2023/12/03 05:12:09;;;;;;;10.32;2.20;;;3.50;99.90;;;;;;5013960;28;20049;-64
2023/12/03 05:14:37;;;;;;;4.80;2.35;;;3.50;99.90;;;;;;5013029;28;20111;-65
2023/12/03 05:17:04;;;;;;;10.07;2.55;;;3.50;99.90;;;;;;5028522;28;20076;-65
2023/12/03 05:19:31;;;;;;;7.72;2.22;;;3.50;99.90;;;;;;5010803;28;20049;-65
2023/12/03 05:21:58;;;;;;;7.50;2.28;;;3.50;99.90;;;;;;5028737;28;20048;-65
2023/12/03 05:24:25;;;;;;;4.65;1.73;;;3.50;99.90;;;;;;5028136;28;20042;-66
2023/12/03 05:26:51;;;;;;;11.80;2.88;;;3.50;99.90;;;;;;5027842;28;20045;-66
2023/12/03 05:29:21;;;;;;;11.60;2.90;;;3.50;99.90;;;;;;5028074;28;20551;-65
2023/12/03 05:31:53;;;;;;;8.23;2.97;;;3.50;99.90;;;;;;5027837;28;20055;-65
2023/12/03 05:34:23;;;;;;;4.05;2.25;;;3.60;99.90;;;;;;5027944;28;20053;-65
2023/12/03 05:36:51;;;;;;;7.88;2.67;;;3.60;99.90;;;;;;5009809;28;20566;-65
2023/12/03 05:39:21;;;;;;;6.35;2.63;;;3.60;99.90;;;;;;5026930;28;20146;-64
2023/12/03 05:41:48;;;;;;;7.68;2.65;;;3.60;99.90;;;;;;5027872;28;20147;-64
2023/12/03 05:44:15;;;;;;;8.25;2.70;;;3.60;99.90;;;;;;5027757;28;20117;-64
2023/12/03 05:46:42;;;;;;;4.30;2.22;;;3.50;99.90;;;;;;5027932;28;20103;-65
2023/12/03 05:49:09;;;;;;;12.00;4.32;;;3.50;99.90;;;;;;5027216;28;20042;-65
2023/12/03 05:51:36;;;;;;;7.72;2.80;;;3.50;99.90;;;;;;5028279;28;20634;-64
2023/12/03 05:54:03;;;;;;;4.13;2.20;;;3.60;99.90;;;;;;5026511;28;20129;-64
2023/12/03 05:56:30;;;;;;;7.40;2.30;;;3.60;99.90;;;;;;5024868;28;20123;-65
2023/12/03 05:58:56;;;;;;;6.10;2.45;;;3.60;99.90;;;;;;5027400;28;20050;-65
2023/12/03 06:01:24;;;;;;;7.65;3.40;;;3.70;99.90;;;;;;5019365;28;20045;-65
2023/12/03 06:03:51;;;;;;;6.43;2.88;;;3.60;99.90;;;;;;5026612;28;20511;-65
2023/12/03 06:06:18;;;;;;;9.55;3.95;;;3.60;99.90;;;;;;5027789;28;20053;-64
2023/12/03 06:08:45;;;;;;;5.78;3.35;;;3.60;99.90;;;;;;5027322;28;20142;-64
2023/12/03 06:11:12;;;;;;;6.60;3.88;;;3.60;99.90;;;;;;5028167;28;20084;-65
2023/12/03 06:13:39;;;;;;;10.27;2.75;;;3.70;99.90;;;;;;5027327;28;20049;-64
2023/12/03 06:16:06;;;;;;;5.35;2.90;;;3.70;99.90;;;;;;5027782;28;20042;-64
2023/12/03 06:18:33;;;;;;;5.80;2.55;;;3.60;99.90;;;;;;5027146;28;20045;-63
2023/12/03 06:21:00;;;;;;;10.23;3.05;;;3.60;99.90;;;;;;5018488;28;20080;-64
2023/12/03 06:23:27;;;;;;;6.68;2.67;;;3.60;99.90;;;;;;5019700;28;20041;-63
2023/12/03 06:25:54;;;;;;;7.63;2.70;;;3.60;99.90;;;;;;5029810;28;20041;-64
2023/12/03 06:28:21;;;;;;;4.97;2.58;;;3.70;99.90;;;;;;5026446;28;20037;-64
2023/12/03 06:30:47;;;;;;;8.48;2.53;;;3.70;99.90;;;;;;5032905;28;20099;-64
2023/12/03 06:33:18;;;;;;;10.00;2.45;;;3.70;99.90;;;;;;5034812;28;20504;-64
2023/12/03 06:35:49;;;;;;;9.35;3.30;;;3.70;99.90;;;;;;5034769;28;20315;-64
2023/12/03 06:38:16;;;;;;;7.60;4.10;;;3.70;99.90;;;;;;5033884;28;20057;-64
2023/12/03 06:40:43;;;;;;;13.25;3.17;;;3.70;99.90;;;;;;5031831;28;20094;-64
2023/12/03 06:43:10;;;;;;;7.53;2.50;;;3.70;99.90;;;;;;5032127;28;20489;-64
2023/12/03 06:45:40;;;;;;;11.35;3.30;;;3.70;99.90;;;;;;5033109;28;20045;-64
2023/12/03 06:48:06;;;;;;;5.50;2.83;;;3.70;99.90;;;;;;5032053;28;20107;-64
2023/12/03 06:50:34;;;;;;;7.22;2.88;;;3.70;99.90;;;;;;5030236;28;20120;-64
2023/12/03 06:53:01;;;;;;;6.78;3.15;;;3.70;99.90;;;;;;5029190;28;20046;-64
2023/12/03 06:55:28;;;;;;;5.13;2.15;;;3.70;99.90;;;;;;5016223;28;20046;-64
2023/12/03 06:57:55;;;;;;;5.90;2.83;;;3.70;99.90;;;;;;5000037;28;20488;-66
2023/12/03 07:00:23;;;;;;;6.68;2.65;;;3.70;99.90;;;;;;5032946;28;20052;-65
2023/12/03 07:02:50;;;;;;;7.50;2.70;;;3.70;99.90;;;;;;5034085;28;20048;-64
2023/12/03 07:05:17;;;;;;;6.05;2.78;;;3.70;99.90;;;;;;5033407;28;20083;-65
2023/12/03 07:07:51;;;;;;;6.05;2.50;;;3.70;99.90;;;;;;5033704;28;20041;-64
2023/12/03 07:10:18;;;;;;;3.95;2.60;;;3.70;99.90;;;;;;5032179;28;20049;-65
2023/12/03 07:12:45;;;;;;;5.32;2.47;;;3.70;99.90;;;;;;5033350;28;20056;-64
2023/12/03 07:15:12;;;;;;;5.53;2.70;;;3.80;99.90;;;;;;5030392;28;20049;-64
2023/12/03 07:17:39;;;;;;;9.98;3.03;;;3.70;99.90;;;;;;5030390;28;20148;-64
2023/12/03 07:20:07;;;;;;;7.22;2.63;;;3.80;99.90;;;;;;5028858;28;20116;-65
2023/12/03 07:22:34;;;;;;;10.68;2.40;;;3.80;99.90;;;;;;5014535;28;20045;-64
2023/12/03 07:25:02;;;;;;;11.88;3.45;;;3.90;99.90;;;;;;5033348;28;20045;-64
2023/12/03 07:27:29;;;;;;;8.27;2.28;;;3.90;99.90;;;;;;5033517;28;20496;-64
2023/12/03 07:29:56;;;;;;;9.23;3.30;;;3.80;99.90;;;;;;5033552;28;20077;-64
2023/12/03 07:32:23;;;;;;;11.20;3.00;;;3.80;99.90;;;;;;5033116;28;20052;-65
2023/12/03 07:34:50;;;;;;;8.93;4.07;;;3.90;99.90;;;;;;5033000;28;20041;-65
2023/12/03 07:37:17;;;;;;;15.68;3.38;;;3.90;99.90;;;;;;5031619;28;20111;-65
2023/12/03 07:39:44;;;;;;;9.02;3.05;;;3.90;99.90;;;;;;5033011;28;20049;-65
2023/12/03 07:42:11;;;;;;;9.93;2.92;;;3.90;99.90;;;;;;5028667;28;20140;-65
2023/12/03 07:44:38;;;;;;;9.65;3.17;;;4.00;99.90;;;;;;5030374;28;20099;-64
2023/12/03 07:47:04;;;;;;;9.90;3.55;;;4.00;99.90;;;;;;5029957;28;20543;-64
2023/12/03 07:49:31;;;;;;;9.32;4.70;;;4.10;99.90;;;;;;5029641;28;20049;-64
2023/12/03 07:51:58;;;;;;;9.05;3.30;;;4.10;99.90;;;;;;5012481;28;20045;-65
2023/12/03 07:54:25;;;;;;;11.13;3.80;;;4.10;99.90;;;;;;5029978;28;20041;-64
2023/12/03 07:56:52;;;;;;;12.43;3.00;;;4.10;99.90;;;;;;5031404;28;20049;-65
2023/12/03 07:59:19;;;;;;;12.60;3.67;;;4.10;99.90;;;;;;5014446;28;20060;-65
2023/12/03 08:01:47;;;;;;;12.18;3.58;;;4.10;99.90;;;;;;5033037;28;20037;-64
2023/12/03 08:04:14;;;;;;;20.08;3.63;;;4.10;99.90;;;;;;5031517;28;20091;-65
2023/12/03 08:06:41;;;;;;;16.25;3.17;;;4.20;99.90;;;;;;5029678;28;20052;-64
2023/12/03 08:09:08;;;;;;;10.40;3.50;;;4.20;99.90;;;;;;5012340;28;20392;-64
2023/12/03 08:11:35;;;;;;;12.27;3.75;;;4.20;99.90;;;;;;5029814;28;20464;-64
2023/12/03 08:14:03;;;;;;;14.68;4.38;;;4.20;99.90;;;;;;5029140;28;20051;-64
2023/12/03 08:16:29;;;;;;;13.00;4.07;;;4.20;99.90;;;;;;5012002;28;20041;-64
2023/12/03 08:18:56;;;;;;;11.82;3.63;;;4.20;99.90;;;;;;5028687;28;20045;-64
2023/12/03 08:21:23;;;;;;;13.85;3.35;;;4.20;99.90;;;;;;5005883;28;20048;-64
2023/12/03 08:23:51;;;;;;;12.45;3.40;;;4.20;99.90;;;;;;5028550;28;20061;-64
2023/12/03 08:26:17;;;;;;;10.60;4.18;;;4.30;99.90;;;;;;5005363;28;20046;-65
2023/12/03 08:28:44;;;;;;;17.98;4.78;;;4.30;99.90;;;;;;5019505;28;20045;-65
2023/12/03 08:31:11;;;;;;;18.77;4.15;;;4.30;99.90;;;;;;5024549;28;20143;-65
2023/12/03 08:33:44;;;;;;;15.38;4.05;;;4.40;99.90;;;;;;5028000;28;20049;-65
2023/12/03 08:36:16;;;;;;;14.30;4.10;;;4.40;99.90;;;;;;5030714;28;20041;-65
2023/12/03 08:38:43;;;;;;;8.30;3.40;;;4.40;99.90;;;;;;5028852;28;20301;-64
2023/12/03 08:41:10;;;;;;;12.93;4.13;;;4.50;99.90;;;;;;5027658;28;20045;-64
2023/12/03 08:43:37;;;;;;;13.00;3.53;;;4.50;99.90;;;;;;5024605;28;20057;-64
2023/12/03 08:46:04;;;;;;;9.80;3.88;;;4.50;99.90;;;;;;5025809;28;20124;-65
2023/12/03 08:48:31;;;;;;;14.65;3.83;;;4.60;99.90;;;;;;5018318;28;20049;-64
2023/12/03 08:50:58;;;;;;;10.13;3.42;;;4.60;99.90;;;;;;5026237;28;20088;-66
2023/12/03 08:53:25;;;;;;;16.73;3.22;;;4.70;99.90;;;;;;5014289;28;20501;-65
2023/12/03 08:55:52;;;;;;;19.60;4.28;;;4.70;99.90;;;;;;5027623;28;20045;-65
2023/12/03 08:58:18;;;;;;;26.83;6.82;;;4.70;99.90;;;;;;5023819;28;20103;-64
2023/12/03 09:00:45;;;;;;;12.98;5.47;;;4.80;99.90;;;;;;5020537;28;20641;-64
2023/12/03 09:03:12;;;;;;;17.88;4.75;;;4.80;99.90;;;;;;4676328;28;10000546;-65
2023/12/03 09:05:43;;;;;;;26.13;5.93;;;4.90;99.90;;;;;;5022911;28;20049;-62
2023/12/03 09:08:10;;;;;;;14.25;5.82;;;4.90;99.90;;;;;;5025647;28;20061;-62
2023/12/03 09:10:37;;;;;;;12.52;5.15;;;4.90;99.90;;;;;;4998988;28;20153;-62
2023/12/03 09:13:04;;;;;;;16.92;4.80;;;5.00;99.90;;;;;;5023141;28;20413;-63
2023/12/03 09:15:31;;;;;;;16.90;5.93;;;5.10;99.90;;;;;;5023480;28;20045;-62
2023/12/03 09:17:58;;;;;;;15.93;5.47;;;5.10;99.90;;;;;;4980779;28;20053;-63
2023/12/03 09:20:25;;;;;;;25.75;7.03;;;5.20;99.90;;;;;;5017962;28;20814;-63
2023/12/03 09:22:52;;;;;;;20.10;5.18;;;5.20;99.90;;;;;;5020666;28;20453;-62
2023/12/03 09:25:18;;;;;;;19.65;6.93;;;5.30;99.90;;;;;;5019905;28;20049;-63
2023/12/03 09:27:45;;;;;;;16.27;5.93;;;5.30;99.90;;;;;;5008803;28;20045;-62
2023/12/03 09:30:12;;;;;;;19.17;6.10;;;5.30;99.90;;;;;;5016731;28;20057;-62
2023/12/03 09:32:39;;;;;;;13.57;6.18;;;5.40;99.90;;;;;;5018204;28;20103;-62
2023/12/03 09:35:06;;;;;;;10.60;5.15;;;5.40;99.90;;;;;;5017704;28;20042;-62
2023/12/03 09:37:33;;;;;;;15.35;5.60;;;5.40;99.90;;;;;;5025142;28;20448;-62
2023/12/03 09:40:02;;;;;;;12.82;5.78;;;5.40;99.90;;;;;;5021763;28;20042;-62
2023/12/03 09:42:29;;;;;;;19.35;6.60;;;5.50;99.90;;;;;;5015780;28;20054;-63
2023/12/03 09:45:00;;;;;;;17.90;7.38;;;5.50;99.90;;;;;;5002898;28;20049;-63
2023/12/03 09:47:27;;;;;;;17.33;5.57;;;5.60;99.90;;;;;;5021265;28;20420;-63
2023/12/03 09:49:57;;;;;;;21.48;7.53;;;5.60;99.90;;;;;;5020154;28;20057;-63
2023/12/03 09:52:25;;;;;;;16.50;7.15;;;5.70;99.90;;;;;;5010603;28;20288;-65
2023/12/03 09:54:52;;;;;;;19.80;5.85;;;5.70;99.90;;;;;;5024745;28;20053;-63
2023/12/03 09:57:19;;;;;;;16.02;5.63;;;5.70;99.90;;;;;;5006320;28;20057;-62
2023/12/03 09:59:48;;;;;;;22.33;6.07;;;5.80;99.90;;;;;;4996670;28;20042;-63
2023/12/03 10:02:16;;;;;;;13.15;5.53;;;5.90;99.90;;;;;;5002939;28;20072;-62
2023/12/03 10:04:44;;;;;;;30.83;7.45;;;6.00;99.90;;;;;;4997200;28;20042;-63
2023/12/03 10:07:11;;;;;;;18.40;6.03;;;6.10;99.90;;;;;;5026206;28;20675;-62
2023/12/03 10:09:39;;;;;;;18.70;7.15;;;6.20;99.90;;;;;;5010694;28;20049;-62
2023/12/03 10:12:07;;;;;;;15.05;5.90;;;6.20;99.90;;;;;;4991464;28;20555;-63
2023/12/03 10:14:34;;;;;;;18.30;6.60;;;6.30;99.90;;;;;;5016872;28;20494;-63
2023/12/03 10:17:01;;;;;;;18.45;6.25;;;6.30;99.90;;;;;;5018179;28;20335;-63
2023/12/03 10:19:28;;;;;;;15.43;5.93;;;6.40;99.90;;;;;;4997556;28;20057;-63
2023/12/03 10:21:55;;;;;;;19.45;6.45;;;6.30;99.90;;;;;;5018414;28;20295;-63
2023/12/03 10:24:22;;;;;;;15.77;6.53;;;6.50;99.90;;;;;;4998292;28;20111;-63
2023/12/03 10:26:53;;;;;;;13.90;5.25;;;6.50;99.90;;;;;;5020334;28;20038;-63
2023/12/03 10:29:23;;;;;;;16.35;5.97;;;6.60;99.90;;;;;;5017407;28;20624;-63
2023/12/03 10:31:50;;;;;;;16.80;5.55;;;6.60;99.90;;;;;;5017415;28;20055;-63
2023/12/03 10:34:18;;;;;;;12.73;5.28;;;6.70;99.90;;;;;;5016025;28;20428;-63
2023/12/03 10:36:45;;;;;;;12.00;4.85;;;6.70;99.90;;;;;;5020022;28;20619;-63
2023/12/03 10:39:17;;;;;;;13.38;5.80;;;6.70;99.90;;;;;;5022065;28;20501;-63
2023/12/03 10:41:49;;;;;;;17.95;5.13;;;6.70;99.90;;;;;;5004373;28;20053;-63
2023/12/03 10:44:23;;;;;;;12.82;4.95;;;6.70;99.90;;;;;;5001414;28;20048;-63
2023/12/03 10:46:50;;;;;;;;;;;6.70;99.90;;;;;;5007873;28;20052;-63
2023/12/03 10:49:20;;;;;;;17.33;6.43;;;6.70;99.90;;;;;;5008964;28;20338;-62
2023/12/03 10:51:47;;;;;;;9.45;4.65;;;6.70;99.90;;;;;;5026833;28;20140;-63
2023/12/03 10:54:15;;;;;;;12.93;6.15;;;6.70;99.90;;;;;;5002483;28;20099;-63
2023/12/03 10:56:42;;;;;;;10.80;3.65;;;6.80;99.90;;;;;;5018541;28;20049;-63
2023/12/03 10:59:10;;;;;;;9.02;4.60;;;6.70;99.90;;;;;;5005782;28;20058;-63
2023/12/03 11:01:55;;;;;;;12.23;4.38;;;6.80;99.90;;;;;;5018424;28;20049;-63
2023/12/03 11:04:45;;;;;;;7.63;3.63;;;6.70;99.90;;;;;;5002118;28;20501;-63
2023/12/03 11:07:14;;;;;;;17.45;6.05;;;6.70;99.90;;;;;;5017689;28;20050;-62
2023/12/03 11:09:41;;;;;;;21.15;4.68;;;6.70;99.90;;;;;;5021322;28;20053;-64
2023/12/03 11:12:15;;;;;;;;;;;6.70;99.90;;;;;;5007510;28;20715;-63
2023/12/03 11:14:42;;;;;;;7.30;3.80;;;6.70;99.90;;;;;;5004064;28;19974;-62
2023/12/03 11:17:30;;;;;;;13.02;3.65;;;6.60;99.90;;;;;;5010567;28;20111;-62
2023/12/03 11:20:01;;;;;;;10.98;5.10;;;6.70;99.90;;;;;;5008062;28;20052;-63
2023/12/03 11:22:51;;;;;;;7.50;3.90;;;6.70;99.90;;;;;;5009872;28;20053;-62
2023/12/03 11:25:21;;;;;;;10.13;3.78;;;6.70;99.90;;;;;;5025254;28;20646;-62
2023/12/03 11:27:47;;;;;;;7.75;4.35;;;6.70;99.90;;;;;;4993055;28;20049;-62
2023/12/03 11:30:15;;;;;;;12.52;3.75;;;6.70;99.90;;;;;;5024802;28;20056;-62
2023/12/03 11:32:42;;;;;;;11.00;3.60;;;6.70;99.90;;;;;;4990950;28;20529;-62
2023/12/03 11:35:15;;;;;;;11.50;4.45;;;6.70;99.90;;;;;;5026141;28;20075;-62
2023/12/03 11:37:43;;;;;;;11.43;4.55;;;6.70;99.90;;;;;;5009148;28;20528;-62
2023/12/03 11:40:12;;;;;;;12.35;4.22;;;6.70;99.90;;;;;;5026161;28;20055;-62
2023/12/03 11:42:47;;;;;;;7.32;3.85;;;6.70;99.90;;;;;;5025221;28;20042;-62
2023/12/03 11:45:25;;;;;;;10.60;4.30;;;6.70;99.90;;;;;;5026476;28;20087;-62
2023/12/03 11:48:08;;;;;;;11.52;3.58;;;6.70;99.90;;;;;;5024356;28;20060;-62
2023/12/03 11:50:43;;;;;;;7.57;3.60;;;6.80;99.90;;;;;;5024734;28;20100;-62
2023/12/03 11:53:15;;;;;;;7.47;2.83;;;6.80;99.90;;;;;;5010151;28;20053;-63
2023/12/03 11:55:49;;;;;;;13.68;7.07;;;6.80;99.90;;;;;;5010863;28;20038;-63
2023/12/03 11:58:20;;;;;;;7.28;2.42;;;6.90;99.90;;;;;;4985705;28;20172;-62
2023/12/03 12:00:47;;;;;;;5.85;2.15;;;6.90;99.90;;;;;;5006732;28;20100;-62
2023/12/03 12:03:14;;;;;;;10.48;2.38;;;6.90;99.90;;;;;;5021140;28;20520;-62
2023/12/03 12:05:47;;;;;;;3.65;2.35;;;6.90;99.90;;;;;;5024057;28;20095;-62
2023/12/03 12:08:19;;;;;;;9.80;3.65;;;7.00;99.90;;;;;;5025277;28;20132;-62
2023/12/03 12:10:46;;;;;;;9.23;3.00;;;7.00;99.90;;;;;;5025086;28;20568;-62
2023/12/03 12:13:16;;;;;;;5.63;2.50;;;7.00;99.90;;;;;;5009025;28;20460;-62
2023/12/03 12:15:43;;;;;;;4.05;1.98;;;7.10;99.90;;;;;;5027625;28;20049;-62
2023/12/03 12:18:10;;;;;;;7.40;2.10;;;7.10;99.90;;;;;;5027545;28;20049;-62
2023/12/03 12:20:37;;;;;;;7.30;1.85;;;7.10;99.90;;;;;;5005491;28;20077;-63
2023/12/03 12:23:04;;;;;;;4.95;1.80;;;7.10;99.90;;;;;;5020078;28;20054;-63
2023/12/03 12:25:31;;;;;;;5.75;1.65;;;7.10;99.90;;;;;;5021398;28;20053;-62
2023/12/03 12:27:57;;;;;;;4.72;1.67;;;7.10;99.90;;;;;;5008536;28;20116;-63
2023/12/03 12:30:28;;;;;;;5.20;1.90;;;7.20;99.90;;;;;;5009713;28;20041;-62
2023/12/03 12:33:02;;;;;;;7.22;2.17;;;7.20;99.90;;;;;;5009947;28;20308;-63
2023/12/03 12:35:30;;;;;;;10.18;2.35;;;7.30;99.90;;;;;;5020909;28;20049;-62
2023/12/03 12:38:03;;;;;;;8.07;2.58;;;7.30;99.90;;;;;;5027398;28;20060;-62
2023/12/03 12:40:31;;;;;;;5.60;2.33;;;7.30;99.90;;;;;;5029322;28;20045;-62
2023/12/03 12:43:08;;;;;;;5.80;1.98;;;7.30;99.90;;;;;;5014321;28;20386;-63
2023/12/03 12:45:36;;;;;;;4.35;2.13;;;7.30;99.90;;;;;;5022466;28;20045;-62
2023/12/03 12:48:03;;;;;;;6.53;1.50;;;7.30;99.90;;;;;;5029858;28;20068;-62
2023/12/03 12:50:37;;;;;;;6.40;2.13;;;7.30;99.90;;;;;;5029526;28;20081;-63
2023/12/03 12:53:06;;;;;;;5.38;1.75;;;7.30;99.90;;;;;;5024811;28;20095;-62